createdAt,value
2018-02-16T00:00:03.426Z,81.1
2018-02-16T00:05:02.806Z,81.1
2018-02-16T00:10:02.691Z,81.4
2018-02-16T00:15:03.026Z,81.5
2018-02-16T00:20:03.454Z,81.7
2018-02-16T00:25:02.720Z,82.2
2018-02-16T00:30:03.021Z,82.4
2018-02-16T00:35:03.262Z,82.6
2018-02-16T00:40:03.067Z,82.6
2018-02-16T00:45:03.376Z,82.8
2018-02-16T00:50:02.732Z,82.8
2018-02-16T00:55:03.053Z,82.6
2018-02-16T01:00:03.415Z,82.7
2018-02-16T01:05:02.831Z,82.6
2018-02-16T01:10:02.749Z,82.9
2018-02-16T01:15:03.022Z,83
2018-02-16T01:20:03.462Z,83.1
2018-02-16T01:25:02.726Z,83
2018-02-16T01:30:03.189Z,83.1
2018-02-16T01:35:03.501Z,83.1
2018-02-16T01:40:03.392Z,83.5
2018-02-16T01:45:02.679Z,83.6
2018-02-16T01:50:02.979Z,83.9
2018-02-16T01:55:03.335Z,83.9
2018-02-16T02:00:02.682Z,83.7
2018-02-16T02:05:02.954Z,83.1
2018-02-16T02:10:02.748Z,82.9
2018-02-16T02:15:03.026Z,82.9
2018-02-16T02:20:03.457Z,82.7
2018-02-16T02:25:02.729Z,82.8
2018-02-16T02:30:05.594Z,82.5
2018-02-16T02:35:03.435Z,82.5
2018-02-16T02:40:03.125Z,82.8
2018-02-16T02:45:03.567Z,83.1
2018-02-16T02:50:02.885Z,83.2
2018-02-16T02:55:03.175Z,83.2
2018-02-16T03:00:03.436Z,83.2
2018-02-16T03:05:02.791Z,83.1
2018-02-16T03:10:02.654Z,83.3
2018-02-16T03:15:08.011Z,83.3
2018-02-16T03:20:08.421Z,83.3
2018-02-16T03:25:02.659Z,83.2
2018-02-16T03:30:02.989Z,83.3
2018-02-16T03:35:03.397Z,83.4
2018-02-16T03:40:03.118Z,83.7
2018-02-16T03:45:03.440Z,83.8
2018-02-16T03:50:02.773Z,84
2018-02-16T03:55:03.099Z,83.9
2018-02-16T04:00:03.400Z,84.4
2018-02-16T04:05:02.780Z,84.5
2018-02-16T04:10:02.520Z,84.8
2018-02-16T04:15:02.904Z,84.5
2018-02-16T04:20:03.288Z,84.6
2018-02-16T04:25:02.663Z,84.7
2018-02-16T04:30:02.965Z,84.9
2018-02-16T04:35:03.268Z,85.2
2018-02-16T04:40:03.094Z,85.4
2018-02-16T04:45:03.471Z,85.6
2018-02-16T04:50:02.843Z,85.5
2018-02-16T04:55:03.141Z,85.7
2018-02-16T05:00:03.427Z,85.9
2018-02-16T05:05:02.767Z,85.9
2018-02-16T05:10:02.529Z,86.3
2018-02-16T05:15:02.915Z,86.4
2018-02-16T05:20:03.278Z,86.4
2018-02-16T05:25:02.661Z,86.7
2018-02-16T05:30:02.972Z,86.6
2018-02-16T05:35:03.263Z,86.3
2018-02-16T05:40:03.072Z,86.5
2018-02-16T05:45:03.402Z,86.4
2018-02-16T05:50:05.302Z,86.3
2018-02-16T05:55:03.086Z,86.3
2018-02-16T06:00:03.419Z,86.3
2018-02-16T06:05:02.781Z,86.2
2018-02-16T06:10:02.630Z,86.2
2018-02-16T06:15:02.944Z,85.9
2018-02-16T06:20:03.314Z,86
2018-02-16T06:25:02.677Z,86
2018-02-16T06:30:02.953Z,86
2018-02-16T06:35:03.233Z,85.8
2018-02-16T06:40:03.095Z,85.5
2018-02-16T06:45:03.379Z,85.3
2018-02-16T06:50:02.721Z,85.2
2018-02-16T06:55:03.032Z,84.9
2018-02-16T07:00:03.383Z,84.9
2018-02-16T07:05:02.747Z,84.7
2018-02-16T07:10:06.030Z,84.1
2018-02-16T07:15:02.856Z,84.1
2018-02-16T07:20:03.209Z,83.9
2018-02-16T07:25:03.490Z,83.4
2018-02-16T07:30:02.857Z,83
2018-02-16T07:35:03.174Z,82.7
2018-02-16T07:40:02.976Z,82.4
2018-02-16T07:45:03.285Z,82.1
2018-02-16T07:50:02.698Z,81.5
2018-02-16T07:55:03.018Z,80.2
2018-02-16T08:00:03.354Z,79.1
2018-02-16T08:05:02.750Z,78.9
2018-02-16T08:10:02.630Z,77.9
2018-02-16T08:15:02.950Z,77.6
2018-02-16T08:20:03.325Z,76.6
2018-02-16T08:25:02.725Z,75.9
2018-02-16T08:30:05.586Z,73.8
2018-02-16T08:35:03.450Z,73.6
2018-02-16T08:40:03.172Z,73.5
2018-02-16T08:45:03.546Z,72
2018-02-16T08:50:02.828Z,70.8
2018-02-16T08:55:03.128Z,69.6
2018-02-16T09:00:03.426Z,68.4
2018-02-16T09:05:02.772Z,67.8
2018-02-16T09:10:08.596Z,66.6
2018-02-16T09:15:02.893Z,66.6
2018-02-16T09:20:03.327Z,66.1
2018-02-16T09:25:02.676Z,65.7
2018-02-16T09:30:02.996Z,65.4
2018-02-16T09:35:03.302Z,63.9
2018-02-16T09:40:03.091Z,64.8
2018-02-16T09:45:03.447Z,63.7
2018-02-16T09:50:02.781Z,63.7
2018-02-16T09:55:03.137Z,63.4
2018-02-16T10:00:03.436Z,62.3
2018-02-16T10:05:02.825Z,61.5
2018-02-16T10:10:02.701Z,60.3
2018-02-16T10:15:03.037Z,60.7
2018-02-16T10:20:03.491Z,61.4
2018-02-16T10:25:02.744Z,61.9
2018-02-16T10:30:03.090Z,62.3
2018-02-16T10:35:03.476Z,63.5
2018-02-16T10:40:03.395Z,63.4
2018-02-16T10:45:02.663Z,63.7
2018-02-16T10:50:02.976Z,64.6
2018-02-16T10:55:03.465Z,64.6
2018-02-16T11:00:02.863Z,64.6
2018-02-16T11:05:03.226Z,65
2018-02-16T11:10:03.059Z,64.6
2018-02-16T11:15:03.518Z,65
2018-02-16T11:20:02.882Z,64.8
2018-02-16T11:25:03.402Z,64.7
2018-02-16T11:30:02.850Z,64.9
2018-02-16T11:35:03.170Z,64.5
2018-02-16T11:40:03.001Z,64
2018-02-16T11:45:03.076Z,64.1
2018-02-16T11:50:03.452Z,64.2
2018-02-16T11:55:02.727Z,63.9
2018-02-16T12:00:03.041Z,63.5
2018-02-16T12:05:03.445Z,63.5
2018-02-16T12:10:03.163Z,63.4
2018-02-16T12:15:06.011Z,63.5
2018-02-16T12:20:03.453Z,63.5
2018-02-16T12:25:02.767Z,63.7
2018-02-16T12:30:03.217Z,62.9
2018-02-16T12:35:03.519Z,61.8
2018-02-16T12:40:03.404Z,62.9
2018-02-16T12:45:02.695Z,61.4
2018-02-16T12:50:03.143Z,61.4
2018-02-16T12:55:03.474Z,61.4
2018-02-16T13:00:02.855Z,58.9
2018-02-16T13:05:03.253Z,57.8
2018-02-16T13:10:03.114Z,57.2
2018-02-16T13:15:02.564Z,56.4
2018-02-16T13:20:02.930Z,56.4
2018-02-16T13:25:03.344Z,56
2018-02-16T13:30:02.718Z,54.6
2018-02-16T13:35:03.120Z,54.7
2018-02-16T13:40:02.959Z,54.9
2018-02-16T13:45:03.306Z,55.2
2018-02-16T13:50:05.254Z,54.3
2018-02-16T13:55:03.044Z,54.3
2018-02-16T14:00:03.400Z,54.4
2018-02-16T14:05:02.812Z,54.9
2018-02-16T14:10:02.686Z,54.9
2018-02-16T14:15:03.027Z,53.7
2018-02-16T14:20:03.506Z,53.6
2018-02-16T14:25:02.745Z,54.5
2018-02-16T14:30:03.219Z,52.7
2018-02-16T14:35:03.515Z,51.5
2018-02-16T14:40:03.408Z,51.8
2018-02-16T14:45:02.807Z,50
2018-02-16T14:50:03.202Z,50.8
2018-02-16T14:55:02.629Z,51.5
2018-02-16T15:00:02.964Z,52.7
2018-02-16T15:05:03.431Z,53.2
2018-02-16T15:10:03.122Z,53.7
2018-02-16T15:15:03.555Z,53.8
2018-02-16T15:20:02.937Z,54.2
2018-02-16T15:25:03.349Z,54.4
2018-02-16T15:30:02.710Z,54.6
2018-02-16T15:35:05.650Z,55.4
2018-02-16T15:40:03.431Z,55.4
2018-02-16T15:45:02.854Z,55.3
2018-02-16T15:50:03.205Z,55.6
2018-02-16T15:55:02.597Z,55.9
2018-02-16T16:00:08.000Z,56.1
2018-02-16T16:05:03.233Z,56.1
2018-02-16T16:10:03.057Z,56.6
2018-02-16T16:15:03.559Z,57.2
2018-02-16T16:20:02.950Z,57.7
2018-02-16T16:25:05.788Z,58.4
2018-02-16T16:30:05.599Z,59
2018-02-16T16:35:03.468Z,59
2018-02-16T16:40:03.394Z,59.5
2018-02-16T16:45:02.663Z,60.1
2018-02-16T16:50:02.982Z,60.7
2018-02-16T16:55:03.347Z,60.8
2018-02-16T17:00:02.687Z,61.2
2018-02-16T17:05:03.059Z,61.8
2018-02-16T17:10:02.820Z,62.2
2018-02-16T17:15:05.756Z,62.7
2018-02-16T17:20:03.197Z,62.7
2018-02-16T17:25:06.029Z,63.6
2018-02-16T17:30:03.391Z,63.6
2018-02-16T17:35:02.802Z,64.3
2018-02-16T17:40:02.645Z,64.7
2018-02-16T17:45:02.949Z,65
2018-02-16T17:50:03.267Z,65.3
2018-02-16T17:55:02.666Z,65.2
2018-02-16T18:00:03.049Z,65.4
2018-02-16T18:05:03.529Z,65.5
2018-02-16T18:10:03.392Z,65.7
2018-02-16T18:15:02.730Z,65.9
2018-02-16T18:20:03.211Z,66.3
2018-02-16T18:25:03.467Z,66.4
2018-02-16T18:30:07.936Z,67
2018-02-16T18:35:05.724Z,67.5
2018-02-16T18:40:02.639Z,67.5
2018-02-16T18:45:02.960Z,67.7
2018-02-16T18:50:03.250Z,67.9
2018-02-16T18:55:02.603Z,68.2
2018-02-16T19:00:02.935Z,68.5
2018-02-16T19:05:03.223Z,68.6
2018-02-16T19:10:03.089Z,68.8
2018-02-16T19:15:03.392Z,69.1
2018-02-16T19:20:02.810Z,69.2
2018-02-16T19:25:03.140Z,69.3
2018-02-16T19:30:08.527Z,69.4
2018-02-16T19:35:02.796Z,69.4
2018-02-16T19:40:02.649Z,69.6
2018-02-16T19:45:02.970Z,69.8
2018-02-16T19:50:03.274Z,70.1
2018-02-16T19:55:02.605Z,70.2
2018-02-16T20:00:02.917Z,70.6
2018-02-16T20:05:03.219Z,71
2018-02-16T20:10:03.009Z,71
2018-02-16T20:15:03.310Z,71.1
2018-02-16T20:20:02.743Z,71.2
2018-02-16T20:25:03.075Z,71.4
2018-02-16T20:30:03.401Z,71.3
2018-02-16T20:35:02.785Z,71.3
2018-02-16T20:40:02.711Z,71.4
2018-02-16T20:45:02.944Z,71.6
2018-02-16T20:50:03.279Z,71.8
2018-02-16T20:55:02.651Z,72
2018-02-16T21:00:02.944Z,72.2
2018-02-16T21:05:03.248Z,72.2
2018-02-16T21:10:03.075Z,72.3
2018-02-16T21:15:03.390Z,72.5
2018-02-16T21:20:02.793Z,72.6
2018-02-16T21:25:03.122Z,72.6
2018-02-16T21:30:03.403Z,72.7
2018-02-16T21:35:02.783Z,72.8
2018-02-16T21:40:02.546Z,73.1
2018-02-16T21:45:02.906Z,73.2
2018-02-16T21:50:03.242Z,73.3
2018-02-16T21:55:02.625Z,73.4
2018-02-16T22:00:02.954Z,73.8
2018-02-16T22:05:03.235Z,73.7
2018-02-16T22:10:03.098Z,73.6
2018-02-16T22:15:03.407Z,73.6
2018-02-16T22:20:02.780Z,73.7
2018-02-16T22:25:03.101Z,73.8
2018-02-16T22:30:05.919Z,74.4
2018-02-16T22:35:02.745Z,74.2
2018-02-16T22:40:03.485Z,74.3
2018-02-16T22:45:02.916Z,74.4
2018-02-16T22:50:03.221Z,74.7
2018-02-16T22:55:03.500Z,74.8
2018-02-16T23:00:02.774Z,74.8
2018-02-16T23:05:03.098Z,74.9
2018-02-16T23:10:02.849Z,74.9
2018-02-16T23:15:05.738Z,75.2
2018-02-16T23:20:03.183Z,75.1
2018-02-16T23:25:08.506Z,74.9
2018-02-16T23:30:02.752Z,75
2018-02-16T23:35:03.102Z,74.9
2018-02-16T23:40:02.782Z,75.1
2018-02-16T23:45:03.172Z,75.3
2018-02-16T23:50:03.501Z,75.5
2018-02-16T23:55:02.919Z,75.5
